sensor_id;sensor_type;location;lat;lon;timestamp;P1;durP1;ratioP1;P2;durP2;ratioP2
14048;SDS011;7099;53.922;10.728;2023-08-21T00:01:10;6.73;;;3.17;;
14048;SDS011;7099;53.922;10.728;2023-08-21T00:05:16;8.40;;;3.13;;
14048;SDS011;7099;53.922;10.728;2023-08-21T00:09:22;4.80;;;2.80;;
14048;SDS011;7099;53.922;10.728;2023-08-21T00:13:27;5.17;;;3.17;;
14048;SDS011;7099;53.922;10.728;2023-08-21T00:17:33;6.93;;;3.40;;
14048;SDS011;7099;53.922;10.728;2023-08-21T00:21:39;7.27;;;3.00;;
14048;SDS011;7099;53.922;10.728;2023-08-21T00:25:45;10.80;;;3.60;;
14048;SDS011;7099;53.922;10.728;2023-08-21T00:29:52;7.83;;;3.20;;
14048;SDS011;7099;53.922;10.728;2023-08-21T00:33:57;7.03;;;3.30;;
14048;SDS011;7099;53.922;10.728;2023-08-21T00:38:03;8.20;;;3.40;;
14048;SDS011;7099;53.922;10.728;2023-08-21T00:42:08;4.60;;;2.80;;
14048;SDS011;7099;53.922;10.728;2023-08-21T00:46:14;9.67;;;3.57;;
14048;SDS011;7099;53.922;10.728;2023-08-21T00:50:20;7.53;;;3.40;;
14048;SDS011;7099;53.922;10.728;2023-08-21T00:54:26;11.50;;;2.80;;
14048;SDS011;7099;53.922;10.728;2023-08-21T00:58:32;7.67;;;3.10;;
14048;SDS011;7099;53.922;10.728;2023-08-21T01:02:37;4.93;;;2.70;;
14048;SDS011;7099;53.922;10.728;2023-08-21T01:06:49;4.83;;;2.93;;
14048;SDS011;7099;53.922;10.728;2023-08-21T01:15:13;5.53;;;2.77;;
14048;SDS011;7099;53.922;10.728;2023-08-21T01:19:24;7.30;;;2.57;;
14048;SDS011;7099;53.922;10.728;2023-08-21T01:23:42;7.70;;;2.63;;
14048;SDS011;7099;53.922;10.728;2023-08-21T01:27:48;6.27;;;2.60;;
14048;SDS011;7099;53.922;10.728;2023-08-21T01:32:01;6.80;;;2.93;;
14048;SDS011;7099;53.922;10.728;2023-08-21T01:36:41;3.37;;;2.53;;
14048;SDS011;7099;53.922;10.728;2023-08-21T01:40:48;4.73;;;2.67;;
14048;SDS011;7099;53.922;10.728;2023-08-21T01:44:54;2.70;;;2.50;;
14048;SDS011;7099;53.922;10.728;2023-08-21T01:48:59;5.50;;;2.83;;
14048;SDS011;7099;53.922;10.728;2023-08-21T01:53:05;8.37;;;3.10;;
14048;SDS011;7099;53.922;10.728;2023-08-21T01:57:10;7.80;;;2.77;;
14048;SDS011;7099;53.922;10.728;2023-08-21T02:01:16;6.20;;;2.70;;
14048;SDS011;7099;53.922;10.728;2023-08-21T02:05:23;7.10;;;2.73;;
14048;SDS011;7099;53.922;10.728;2023-08-21T02:09:28;4.60;;;2.97;;
14048;SDS011;7099;53.922;10.728;2023-08-21T02:13:34;5.60;;;2.80;;
14048;SDS011;7099;53.922;10.728;2023-08-21T02:17:39;4.20;;;2.33;;
14048;SDS011;7099;53.922;10.728;2023-08-21T02:21:47;4.43;;;2.63;;
14048;SDS011;7099;53.922;10.728;2023-08-21T02:25:53;3.13;;;2.33;;
14048;SDS011;7099;53.922;10.728;2023-08-21T02:29:58;6.30;;;2.70;;
14048;SDS011;7099;53.922;10.728;2023-08-21T02:34:04;5.67;;;2.83;;
14048;SDS011;7099;53.922;10.728;2023-08-21T02:38:10;6.53;;;2.90;;
14048;SDS011;7099;53.922;10.728;2023-08-21T02:42:15;4.30;;;2.23;;
14048;SDS011;7099;53.922;10.728;2023-08-21T02:46:21;5.40;;;2.43;;
14048;SDS011;7099;53.922;10.728;2023-08-21T02:50:27;5.07;;;2.20;;
14048;SDS011;7099;53.922;10.728;2023-08-21T02:54:32;5.20;;;2.40;;
14048;SDS011;7099;53.922;10.728;2023-08-21T02:58:38;3.87;;;2.30;;
14048;SDS011;7099;53.922;10.728;2023-08-21T03:02:43;4.30;;;2.50;;
14048;SDS011;7099;53.922;10.728;2023-08-21T03:06:49;8.23;;;2.73;;
14048;SDS011;7099;53.922;10.728;2023-08-21T03:10:54;7.17;;;3.20;;
14048;SDS011;7099;53.922;10.728;2023-08-21T03:15:00;12.23;;;3.63;;
14048;SDS011;7099;53.922;10.728;2023-08-21T03:19:06;10.53;;;3.50;;
14048;SDS011;7099;53.922;10.728;2023-08-21T03:23:12;6.83;;;3.30;;
14048;SDS011;7099;53.922;10.728;2023-08-21T03:27:19;6.43;;;3.50;;
14048;SDS011;7099;53.922;10.728;2023-08-21T03:31:26;8.40;;;3.65;;
14048;SDS011;7099;53.922;10.728;2023-08-21T03:35:32;5.83;;;3.10;;
14048;SDS011;7099;53.922;10.728;2023-08-21T03:39:38;3.50;;;2.80;;
14048;SDS011;7099;53.922;10.728;2023-08-21T03:43:43;5.27;;;2.90;;
14048;SDS011;7099;53.922;10.728;2023-08-21T03:47:49;6.80;;;2.97;;
14048;SDS011;7099;53.922;10.728;2023-08-21T03:51:55;6.07;;;3.20;;
14048;SDS011;7099;53.922;10.728;2023-08-21T03:56:00;7.37;;;3.23;;
14048;SDS011;7099;53.922;10.728;2023-08-21T04:12:24;5.83;;;3.00;;
14048;SDS011;7099;53.922;10.728;2023-08-21T04:16:29;7.00;;;3.15;;
14048;SDS011;7099;53.922;10.728;2023-08-21T04:20:35;4.90;;;2.95;;
14048;SDS011;7099;53.922;10.728;2023-08-21T04:24:41;6.70;;;3.20;;
14048;SDS011;7099;53.922;10.728;2023-08-21T04:32:52;4.90;;;2.83;;
14048;SDS011;7099;53.922;10.728;2023-08-21T04:36:58;5.50;;;3.00;;
14048;SDS011;7099;53.922;10.728;2023-08-21T04:53:24;9.63;;;3.77;;
14048;SDS011;7099;53.922;10.728;2023-08-21T04:57:29;6.90;;;3.87;;
14048;SDS011;7099;53.922;10.728;2023-08-21T05:01:35;14.30;;;4.20;;
14048;SDS011;7099;53.922;10.728;2023-08-21T05:05:40;8.90;;;4.00;;
14048;SDS011;7099;53.922;10.728;2023-08-21T05:09:46;9.83;;;5.00;;
14048;SDS011;7099;53.922;10.728;2023-08-21T05:13:52;16.00;;;6.03;;
14048;SDS011;7099;53.922;10.728;2023-08-21T05:17:57;12.17;;;6.80;;
14048;SDS011;7099;53.922;10.728;2023-08-21T05:22:03;17.70;;;7.70;;
14048;SDS011;7099;53.922;10.728;2023-08-21T09:36:20;7.70;;;1.67;;
14048;SDS011;7099;53.922;10.728;2023-08-21T09:40:26;8.23;;;1.53;;
14048;SDS011;7099;53.922;10.728;2023-08-21T09:44:35;2.67;;;1.17;;
14048;SDS011;7099;53.922;10.728;2023-08-21T09:48:45;6.23;;;1.40;;
14048;SDS011;7099;53.922;10.728;2023-08-21T09:52:51;5.80;;;1.30;;
14048;SDS011;7099;53.922;10.728;2023-08-21T09:57:00;4.50;;;1.60;;
14048;SDS011;7099;53.922;10.728;2023-08-21T10:01:08;4.07;;;1.67;;
14048;SDS011;7099;53.922;10.728;2023-08-21T10:05:19;5.70;;;1.37;;
14048;SDS011;7099;53.922;10.728;2023-08-21T10:09:26;5.87;;;1.30;;
14048;SDS011;7099;53.922;10.728;2023-08-21T10:13:33;4.77;;;1.10;;
14048;SDS011;7099;53.922;10.728;2023-08-21T10:17:42;5.70;;;1.53;;
14048;SDS011;7099;53.922;10.728;2023-08-21T10:59:11;2.50;;;1.20;;
14048;SDS011;7099;53.922;10.728;2023-08-21T11:03:17;2.50;;;1.20;;
14048;SDS011;7099;53.922;10.728;2023-08-21T11:07:22;4.10;;;1.33;;
14048;SDS011;7099;53.922;10.728;2023-08-21T11:11:28;2.63;;;1.33;;
14048;SDS011;7099;53.922;10.728;2023-08-21T11:15:34;3.87;;;1.20;;
14048;SDS011;7099;53.922;10.728;2023-08-21T11:19:40;2.33;;;1.00;;
14048;SDS011;7099;53.922;10.728;2023-08-21T11:23:46;2.87;;;1.20;;
14048;SDS011;7099;53.922;10.728;2023-08-21T11:27:52;2.30;;;1.13;;
14048;SDS011;7099;53.922;10.728;2023-08-21T11:31:59;5.30;;;1.37;;
14048;SDS011;7099;53.922;10.728;2023-08-21T11:36:05;3.87;;;1.20;;
14048;SDS011;7099;53.922;10.728;2023-08-21T11:40:11;2.70;;;1.00;;
14048;SDS011;7099;53.922;10.728;2023-08-21T11:44:18;2.93;;;1.17;;
14048;SDS011;7099;53.922;10.728;2023-08-21T11:48:23;1.83;;;0.83;;
14048;SDS011;7099;53.922;10.728;2023-08-21T11:52:29;2.30;;;1.07;;
14048;SDS011;7099;53.922;10.728;2023-08-21T11:56:36;4.10;;;1.23;;
14048;SDS011;7099;53.922;10.728;2023-08-21T12:00:44;2.23;;;0.87;;
14048;SDS011;7099;53.922;10.728;2023-08-21T12:04:51;2.07;;;1.00;;
14048;SDS011;7099;53.922;10.728;2023-08-21T12:09:08;3.30;;;1.23;;
14048;SDS011;7099;53.922;10.728;2023-08-21T12:13:13;3.23;;;1.33;;
14048;SDS011;7099;53.922;10.728;2023-08-21T12:17:19;3.73;;;1.17;;
14048;SDS011;7099;53.922;10.728;2023-08-21T12:21:24;10.33;;;2.47;;
14048;SDS011;7099;53.922;10.728;2023-08-21T12:25:30;8.40;;;1.60;;
14048;SDS011;7099;53.922;10.728;2023-08-21T12:29:36;2.30;;;1.23;;
14048;SDS011;7099;53.922;10.728;2023-08-21T12:33:42;5.53;;;1.70;;
14048;SDS011;7099;53.922;10.728;2023-08-21T12:37:47;5.33;;;1.23;;
14048;SDS011;7099;53.922;10.728;2023-08-21T12:41:53;5.07;;;1.30;;
14048;SDS011;7099;53.922;10.728;2023-08-21T12:45:59;2.67;;;1.20;;
14048;SDS011;7099;53.922;10.728;2023-08-21T12:50:05;6.07;;;1.17;;
14048;SDS011;7099;53.922;10.728;2023-08-21T12:54:11;2.90;;;1.10;;
14048;SDS011;7099;53.922;10.728;2023-08-21T12:58:17;3.87;;;1.50;;
14048;SDS011;7099;53.922;10.728;2023-08-21T13:02:23;2.80;;;0.97;;
14048;SDS011;7099;53.922;10.728;2023-08-21T13:06:29;2.47;;;0.90;;
14048;SDS011;7099;53.922;10.728;2023-08-21T13:10:34;4.13;;;1.20;;
14048;SDS011;7099;53.922;10.728;2023-08-21T13:14:40;2.80;;;1.20;;
14048;SDS011;7099;53.922;10.728;2023-08-21T13:18:46;4.07;;;1.20;;
14048;SDS011;7099;53.922;10.728;2023-08-21T13:22:52;3.87;;;1.10;;
14048;SDS011;7099;53.922;10.728;2023-08-21T13:26:58;3.77;;;1.87;;
14048;SDS011;7099;53.922;10.728;2023-08-21T13:31:03;2.20;;;0.87;;
14048;SDS011;7099;53.922;10.728;2023-08-21T13:35:09;4.50;;;1.17;;
14048;SDS011;7099;53.922;10.728;2023-08-21T13:39:15;3.37;;;1.60;;
14048;SDS011;7099;53.922;10.728;2023-08-21T13:43:21;1.03;;;0.80;;
14048;SDS011;7099;53.922;10.728;2023-08-21T13:47:33;3.83;;;1.27;;
14048;SDS011;7099;53.922;10.728;2023-08-21T13:51:38;3.10;;;0.90;;
14048;SDS011;7099;53.922;10.728;2023-08-21T13:55:44;1.97;;;0.90;;
14048;SDS011;7099;53.922;10.728;2023-08-21T13:59:49;2.90;;;0.93;;
14048;SDS011;7099;53.922;10.728;2023-08-21T14:03:55;2.47;;;0.80;;
14048;SDS011;7099;53.922;10.728;2023-08-21T14:08:00;3.10;;;0.90;;
14048;SDS011;7099;53.922;10.728;2023-08-21T14:12:06;6.80;;;1.10;;
14048;SDS011;7099;53.922;10.728;2023-08-21T14:16:12;3.80;;;1.20;;
14048;SDS011;7099;53.922;10.728;2023-08-21T14:20:17;3.40;;;1.23;;
14048;SDS011;7099;53.922;10.728;2023-08-21T14:24:23;3.20;;;1.00;;
14048;SDS011;7099;53.922;10.728;2023-08-21T14:28:29;2.43;;;1.10;;
14048;SDS011;7099;53.922;10.728;2023-08-21T14:32:34;1.77;;;0.90;;
14048;SDS011;7099;53.922;10.728;2023-08-21T14:36:42;2.03;;;0.90;;
14048;SDS011;7099;53.922;10.728;2023-08-21T14:40:48;3.37;;;0.90;;
14048;SDS011;7099;53.922;10.728;2023-08-21T14:44:55;3.83;;;0.97;;
14048;SDS011;7099;53.922;10.728;2023-08-21T14:49:00;0.90;;;0.80;;
14048;SDS011;7099;53.922;10.728;2023-08-21T14:53:06;1.27;;;0.87;;
14048;SDS011;7099;53.922;10.728;2023-08-21T14:57:11;2.40;;;1.00;;
14048;SDS011;7099;53.922;10.728;2023-08-21T15:01:17;3.93;;;1.00;;
14048;SDS011;7099;53.922;10.728;2023-08-21T15:05:23;6.17;;;1.00;;
14048;SDS011;7099;53.922;10.728;2023-08-21T15:09:28;8.10;;;1.20;;
14048;SDS011;7099;53.922;10.728;2023-08-21T15:13:34;2.83;;;0.90;;
14048;SDS011;7099;53.922;10.728;2023-08-21T15:17:45;1.50;;;1.10;;
14048;SDS011;7099;53.922;10.728;2023-08-21T15:21:51;4.50;;;1.10;;
14048;SDS011;7099;53.922;10.728;2023-08-21T15:25:56;2.60;;;1.07;;
14048;SDS011;7099;53.922;10.728;2023-08-21T15:30:02;3.30;;;1.13;;
14048;SDS011;7099;53.922;10.728;2023-08-21T15:34:08;5.50;;;1.57;;
14048;SDS011;7099;53.922;10.728;2023-08-21T15:38:14;5.33;;;1.53;;
14048;SDS011;7099;53.922;10.728;2023-08-21T15:42:19;4.67;;;1.53;;
14048;SDS011;7099;53.922;10.728;2023-08-21T15:46:25;6.50;;;1.70;;
14048;SDS011;7099;53.922;10.728;2023-08-21T15:50:30;4.00;;;1.33;;
14048;SDS011;7099;53.922;10.728;2023-08-21T15:54:36;4.07;;;1.40;;
14048;SDS011;7099;53.922;10.728;2023-08-21T15:58:44;5.73;;;1.70;;
14048;SDS011;7099;53.922;10.728;2023-08-21T16:02:50;2.97;;;1.10;;
14048;SDS011;7099;53.922;10.728;2023-08-21T16:06:56;4.03;;;1.43;;
14048;SDS011;7099;53.922;10.728;2023-08-21T16:11:01;2.90;;;1.30;;
14048;SDS011;7099;53.922;10.728;2023-08-21T16:15:07;4.57;;;1.43;;
14048;SDS011;7099;53.922;10.728;2023-08-21T16:19:13;7.57;;;1.50;;
14048;SDS011;7099;53.922;10.728;2023-08-21T16:23:18;4.50;;;1.13;;
14048;SDS011;7099;53.922;10.728;2023-08-21T16:27:24;3.20;;;1.60;;
14048;SDS011;7099;53.922;10.728;2023-08-21T16:31:29;4.93;;;1.70;;
14048;SDS011;7099;53.922;10.728;2023-08-21T16:35:35;5.67;;;1.30;;
14048;SDS011;7099;53.922;10.728;2023-08-21T16:39:40;3.47;;;1.13;;
14048;SDS011;7099;53.922;10.728;2023-08-21T16:43:46;2.90;;;1.30;;
14048;SDS011;7099;53.922;10.728;2023-08-21T16:47:51;5.97;;;1.30;;
14048;SDS011;7099;53.922;10.728;2023-08-21T16:51:57;4.20;;;1.30;;
14048;SDS011;7099;53.922;10.728;2023-08-21T16:56:03;5.40;;;1.30;;
14048;SDS011;7099;53.922;10.728;2023-08-21T17:00:08;2.40;;;1.17;;
14048;SDS011;7099;53.922;10.728;2023-08-21T17:04:15;7.00;;;1.37;;
14048;SDS011;7099;53.922;10.728;2023-08-21T17:08:20;9.20;;;1.20;;
14048;SDS011;7099;53.922;10.728;2023-08-21T17:12:26;9.23;;;1.43;;
14048;SDS011;7099;53.922;10.728;2023-08-21T17:16:31;7.10;;;1.40;;
14048;SDS011;7099;53.922;10.728;2023-08-21T17:20:37;4.27;;;1.20;;
14048;SDS011;7099;53.922;10.728;2023-08-21T17:24:44;3.77;;;1.40;;
14048;SDS011;7099;53.922;10.728;2023-08-21T17:28:49;6.03;;;1.70;;
14048;SDS011;7099;53.922;10.728;2023-08-21T17:32:55;5.20;;;1.67;;
14048;SDS011;7099;53.922;10.728;2023-08-21T17:37:01;5.57;;;1.70;;
14048;SDS011;7099;53.922;10.728;2023-08-21T17:41:06;6.10;;;1.53;;
14048;SDS011;7099;53.922;10.728;2023-08-21T17:45:13;4.67;;;1.80;;
14048;SDS011;7099;53.922;10.728;2023-08-21T17:49:19;8.43;;;1.70;;
14048;SDS011;7099;53.922;10.728;2023-08-21T17:53:35;8.60;;;1.87;;
14048;SDS011;7099;53.922;10.728;2023-08-21T17:57:40;4.50;;;1.50;;
14048;SDS011;7099;53.922;10.728;2023-08-21T18:01:46;3.83;;;1.43;;
14048;SDS011;7099;53.922;10.728;2023-08-21T18:05:52;5.73;;;1.83;;
14048;SDS011;7099;53.922;10.728;2023-08-21T18:09:57;4.53;;;1.40;;
14048;SDS011;7099;53.922;10.728;2023-08-21T18:14:03;3.03;;;1.20;;
14048;SDS011;7099;53.922;10.728;2023-08-21T18:18:08;3.60;;;1.43;;
14048;SDS011;7099;53.922;10.728;2023-08-21T18:22:14;5.33;;;1.93;;
14048;SDS011;7099;53.922;10.728;2023-08-21T18:26:20;4.80;;;1.50;;
14048;SDS011;7099;53.922;10.728;2023-08-21T18:30:29;5.67;;;1.90;;
14048;SDS011;7099;53.922;10.728;2023-08-21T18:34:40;7.70;;;2.60;;
14048;SDS011;7099;53.922;10.728;2023-08-21T18:38:46;9.63;;;3.40;;
14048;SDS011;7099;53.922;10.728;2023-08-21T18:42:52;7.43;;;3.00;;
14048;SDS011;7099;53.922;10.728;2023-08-21T18:46:58;5.10;;;2.87;;
14048;SDS011;7099;53.922;10.728;2023-08-21T18:51:03;10.43;;;3.30;;
14048;SDS011;7099;53.922;10.728;2023-08-21T18:55:09;8.83;;;2.73;;
14048;SDS011;7099;53.922;10.728;2023-08-21T18:59:14;6.40;;;2.60;;
14048;SDS011;7099;53.922;10.728;2023-08-21T19:03:20;4.63;;;1.90;;
14048;SDS011;7099;53.922;10.728;2023-08-21T19:07:25;6.93;;;2.23;;
14048;SDS011;7099;53.922;10.728;2023-08-21T19:11:31;5.23;;;2.50;;
14048;SDS011;7099;53.922;10.728;2023-08-21T19:15:36;5.13;;;2.10;;
14048;SDS011;7099;53.922;10.728;2023-08-21T19:19:42;6.27;;;1.80;;
14048;SDS011;7099;53.922;10.728;2023-08-21T19:23:47;5.77;;;1.80;;
14048;SDS011;7099;53.922;10.728;2023-08-21T19:27:53;5.63;;;2.20;;
14048;SDS011;7099;53.922;10.728;2023-08-21T19:31:58;5.80;;;1.87;;
14048;SDS011;7099;53.922;10.728;2023-08-21T19:36:11;8.10;;;2.00;;
14048;SDS011;7099;53.922;10.728;2023-08-21T19:40:17;7.03;;;2.60;;
14048;SDS011;7099;53.922;10.728;2023-08-21T19:44:24;3.30;;;1.57;;
14048;SDS011;7099;53.922;10.728;2023-08-21T19:48:32;7.33;;;1.73;;
14048;SDS011;7099;53.922;10.728;2023-08-21T19:52:38;2.93;;;1.40;;
14048;SDS011;7099;53.922;10.728;2023-08-21T19:56:43;3.73;;;1.77;;
14048;SDS011;7099;53.922;10.728;2023-08-21T20:00:49;7.07;;;2.10;;
14048;SDS011;7099;53.922;10.728;2023-08-21T20:04:54;5.33;;;2.00;;
14048;SDS011;7099;53.922;10.728;2023-08-21T20:09:00;6.83;;;1.97;;
14048;SDS011;7099;53.922;10.728;2023-08-21T20:13:06;4.83;;;1.93;;
14048;SDS011;7099;53.922;10.728;2023-08-21T20:17:11;4.33;;;1.70;;
14048;SDS011;7099;53.922;10.728;2023-08-21T20:21:17;8.37;;;2.80;;
14048;SDS011;7099;53.922;10.728;2023-08-21T20:25:24;3.70;;;1.83;;
14048;SDS011;7099;53.922;10.728;2023-08-21T20:29:29;7.53;;;2.10;;
14048;SDS011;7099;53.922;10.728;2023-08-21T20:33:35;6.83;;;2.33;;
14048;SDS011;7099;53.922;10.728;2023-08-21T20:37:40;4.37;;;1.80;;
14048;SDS011;7099;53.922;10.728;2023-08-21T20:41:47;4.90;;;1.90;;
14048;SDS011;7099;53.922;10.728;2023-08-21T20:45:52;9.80;;;2.00;;
14048;SDS011;7099;53.922;10.728;2023-08-21T20:49:58;5.73;;;1.93;;
14048;SDS011;7099;53.922;10.728;2023-08-21T20:54:04;4.93;;;2.10;;
14048;SDS011;7099;53.922;10.728;2023-08-21T20:58:09;6.13;;;2.13;;
14048;SDS011;7099;53.922;10.728;2023-08-21T21:02:15;3.97;;;2.17;;
14048;SDS011;7099;53.922;10.728;2023-08-21T21:06:21;5.50;;;2.50;;
14048;SDS011;7099;53.922;10.728;2023-08-21T21:10:27;4.27;;;1.70;;
14048;SDS011;7099;53.922;10.728;2023-08-21T21:14:32;4.53;;;1.70;;
14048;SDS011;7099;53.922;10.728;2023-08-21T21:18:38;12.13;;;2.10;;
14048;SDS011;7099;53.922;10.728;2023-08-21T21:22:44;3.47;;;1.90;;
14048;SDS011;7099;53.922;10.728;2023-08-21T21:26:49;11.77;;;2.20;;
14048;SDS011;7099;53.922;10.728;2023-08-21T21:30:58;5.33;;;2.03;;
14048;SDS011;7099;53.922;10.728;2023-08-21T21:35:04;4.70;;;1.90;;
14048;SDS011;7099;53.922;10.728;2023-08-21T21:39:10;3.53;;;1.90;;
14048;SDS011;7099;53.922;10.728;2023-08-21T21:43:17;4.37;;;1.83;;
14048;SDS011;7099;53.922;10.728;2023-08-21T21:47:23;7.67;;;2.07;;
14048;SDS011;7099;53.922;10.728;2023-08-21T21:55:34;7.37;;;2.53;;
14048;SDS011;7099;53.922;10.728;2023-08-21T21:59:39;6.17;;;1.83;;
14048;SDS011;7099;53.922;10.728;2023-08-21T22:03:45;5.50;;;2.17;;
14048;SDS011;7099;53.922;10.728;2023-08-21T22:07:51;5.33;;;1.77;;
14048;SDS011;7099;53.922;10.728;2023-08-21T22:11:56;6.35;;;2.25;;
14048;SDS011;7099;53.922;10.728;2023-08-21T22:16:02;4.60;;;2.25;;
14048;SDS011;7099;53.922;10.728;2023-08-21T22:20:08;6.78;;;2.28;;
14048;SDS011;7099;53.922;10.728;2023-08-21T22:24:15;5.50;;;2.15;;
14048;SDS011;7099;53.922;10.728;2023-08-21T22:28:21;6.80;;;2.20;;
14048;SDS011;7099;53.922;10.728;2023-08-21T22:32:26;7.03;;;2.30;;
14048;SDS011;7099;53.922;10.728;2023-08-21T22:36:32;7.00;;;1.93;;
14048;SDS011;7099;53.922;10.728;2023-08-21T22:40:37;5.77;;;2.10;;
14048;SDS011;7099;53.922;10.728;2023-08-21T22:44:43;5.70;;;1.97;;
14048;SDS011;7099;53.922;10.728;2023-08-21T22:48:48;7.70;;;2.23;;
14048;SDS011;7099;53.922;10.728;2023-08-21T22:52:54;6.23;;;1.83;;
14048;SDS011;7099;53.922;10.728;2023-08-21T22:56:59;4.73;;;1.90;;
14048;SDS011;7099;53.922;10.728;2023-08-21T23:01:05;3.43;;;1.90;;
14048;SDS011;7099;53.922;10.728;2023-08-21T23:05:10;5.67;;;2.03;;
14048;SDS011;7099;53.922;10.728;2023-08-21T23:09:16;5.70;;;2.00;;
14048;SDS011;7099;53.922;10.728;2023-08-21T23:13:21;4.87;;;1.90;;
14048;SDS011;7099;53.922;10.728;2023-08-21T23:17:27;3.30;;;1.83;;
14048;SDS011;7099;53.922;10.728;2023-08-21T23:21:32;6.67;;;2.10;;
14048;SDS011;7099;53.922;10.728;2023-08-21T23:25:38;4.53;;;1.63;;
14048;SDS011;7099;53.922;10.728;2023-08-21T23:29:43;7.63;;;2.00;;
14048;SDS011;7099;53.922;10.728;2023-08-21T23:33:49;5.03;;;1.70;;
14048;SDS011;7099;53.922;10.728;2023-08-21T23:37:54;3.60;;;1.90;;
14048;SDS011;7099;53.922;10.728;2023-08-21T23:42:00;4.63;;;2.20;;
14048;SDS011;7099;53.922;10.728;2023-08-21T23:46:05;5.47;;;1.87;;
14048;SDS011;7099;53.922;10.728;2023-08-21T23:50:11;3.10;;;1.90;;
14048;SDS011;7099;53.922;10.728;2023-08-21T23:58:22;6.73;;;1.80;;
